createdAt,value
2018-09-18T00:00:11.117Z,1005.15
2018-09-18T00:00:51.470Z,1005.16
2018-09-18T00:01:31.906Z,1005.14
2018-09-18T00:02:12.530Z,1005.16
2018-09-18T00:02:52.997Z,1005.13
2018-09-18T00:03:33.342Z,1005.14
2018-09-18T00:04:13.740Z,1005.16
2018-09-18T00:04:54.200Z,1005.15
2018-09-18T00:05:34.607Z,1005.14
2018-09-18T00:06:15.046Z,1005.14
2018-09-18T00:06:55.419Z,1005.12
2018-09-18T00:07:35.837Z,1005.09
2018-09-18T00:08:16.258Z,1005.12
2018-09-18T00:08:56.643Z,1005.09
2018-09-18T00:09:37.001Z,1005.09
2018-09-18T00:10:17.482Z,1005.09
2018-09-18T00:10:57.950Z,1005.06
2018-09-18T00:11:38.291Z,1005.07
2018-09-18T00:12:18.747Z,1005.06
2018-09-18T00:12:59.148Z,1005.06
2018-09-18T00:13:39.494Z,1005.03
2018-09-18T00:14:19.963Z,1005.01
2018-09-18T00:15:00.336Z,1005.02
2018-09-18T00:15:40.864Z,1005
2018-09-18T00:16:21.193Z,1005
2018-09-18T00:17:01.642Z,1005.01
2018-09-18T00:17:42.050Z,1005.04
2018-09-18T00:18:22.536Z,1005.02
2018-09-18T00:19:02.924Z,1005
2018-09-18T00:19:43.436Z,1005
2018-09-18T00:20:23.762Z,1005.01
2018-09-18T00:21:04.172Z,1005
2018-09-18T00:21:44.610Z,1005
2018-09-18T00:22:24.968Z,1004.95
2018-09-18T00:23:05.372Z,1004.97
2018-09-18T00:23:45.754Z,1004.96
2018-09-18T00:24:26.173Z,1004.95
2018-09-18T00:25:06.613Z,1004.99
2018-09-18T00:25:47.002Z,1004.91
2018-09-18T00:26:27.509Z,1004.96
2018-09-18T00:27:07.771Z,1004.91
2018-09-18T00:27:48.207Z,1004.94
2018-09-18T00:28:28.617Z,1004.92
2018-09-18T00:29:09.122Z,1004.93
2018-09-18T00:29:49.486Z,1004.91
2018-09-18T00:30:29.834Z,1004.93
2018-09-18T00:31:10.285Z,1004.9
2018-09-18T00:31:50.670Z,1004.94
2018-09-18T00:32:31.168Z,1004.93
2018-09-18T00:33:11.729Z,1004.93
2018-09-18T00:33:52.175Z,1004.89
2018-09-18T00:34:32.577Z,1004.92
2018-09-18T00:35:12.970Z,1004.91
2018-09-18T00:35:53.383Z,1004.9
2018-09-18T00:36:33.739Z,1004.91
2018-09-18T00:37:14.204Z,1004.87
2018-09-18T00:37:54.635Z,1004.91
2018-09-18T00:38:35.122Z,1004.89
2018-09-18T00:39:15.438Z,1004.88
2018-09-18T00:39:55.834Z,1004.89
2018-09-18T00:40:36.282Z,1004.87
2018-09-18T00:41:16.701Z,1004.85
2018-09-18T00:41:57.065Z,1004.86
2018-09-18T00:42:37.497Z,1004.85
2018-09-18T00:43:18.086Z,1004.82
2018-09-18T00:43:58.349Z,1004.82
2018-09-18T00:44:38.779Z,1004.84
2018-09-18T00:45:19.243Z,1004.84
2018-09-18T00:45:59.608Z,1004.78
2018-09-18T00:46:39.959Z,1004.79
2018-09-18T00:47:20.457Z,1004.78
2018-09-18T00:48:00.788Z,1004.8
2018-09-18T00:48:41.198Z,1004.81
2018-09-18T00:49:21.676Z,1004.77
2018-09-18T00:50:01.999Z,1004.75
2018-09-18T00:50:42.492Z,1004.75
2018-09-18T00:51:22.945Z,1004.72
2018-09-18T00:52:03.203Z,1004.75
2018-09-18T00:52:43.621Z,1004.72
2018-09-18T00:53:24.066Z,1004.74
2018-09-18T00:54:04.449Z,1004.73
2018-09-18T00:54:44.925Z,1004.73
2018-09-18T00:55:25.282Z,1004.71
2018-09-18T00:56:05.751Z,1004.73
2018-09-18T00:56:46.172Z,1004.69
2018-09-18T00:57:26.577Z,1004.69
2018-09-18T00:58:06.902Z,1004.68
2018-09-18T00:58:47.429Z,1004.64
2018-09-18T00:59:27.870Z,1004.69
2018-09-18T01:00:08.268Z,1004.69
2018-09-18T01:00:48.587Z,1004.68
2018-09-18T01:01:29.005Z,1004.71
2018-09-18T01:02:09.441Z,1004.72
2018-09-18T01:02:49.805Z,1004.65
2018-09-18T01:03:30.277Z,1004.63
2018-09-18T01:04:10.802Z,1004.66
2018-09-18T01:04:51.181Z,1004.65
2018-09-18T01:05:31.545Z,1004.69
2018-09-18T01:06:11.993Z,1004.68
2018-09-18T01:06:52.428Z,1004.64
2018-09-18T01:07:32.734Z,1004.65
2018-09-18T01:08:13.165Z,1004.66
2018-09-18T01:08:53.636Z,1004.66
2018-09-18T01:09:34.090Z,1004.62
2018-09-18T01:10:14.425Z,1004.67
2018-09-18T01:10:54.813Z,1004.63
2018-09-18T01:11:35.317Z,1004.67
2018-09-18T01:12:15.660Z,1004.63
2018-09-18T01:12:56.786Z,1004.6
2018-09-18T01:13:37.107Z,1004.55
2018-09-18T01:14:17.530Z,1004.61
2018-09-18T01:14:57.892Z,1004.58
2018-09-18T01:15:38.399Z,1004.56
2018-09-18T01:16:18.733Z,1004.56
2018-09-18T01:16:59.214Z,1004.58
2018-09-18T01:17:39.616Z,1004.57
2018-09-18T01:18:20.007Z,1004.58
2018-09-18T01:19:00.487Z,1004.54
2018-09-18T01:19:40.913Z,1004.59
2018-09-18T01:20:21.375Z,1004.54
2018-09-18T01:21:01.820Z,1004.54
2018-09-18T01:21:42.237Z,1004.58
2018-09-18T01:22:22.658Z,1004.55
2018-09-18T01:23:03.145Z,1004.57
2018-09-18T01:23:43.579Z,1004.58
2018-09-18T01:24:24.442Z,1004.53
2018-09-18T01:25:04.727Z,1004.58
2018-09-18T01:25:45.148Z,1004.62
2018-09-18T01:26:25.714Z,1004.56
2018-09-18T01:27:06.145Z,1004.56
2018-09-18T01:27:46.659Z,1004.57
2018-09-18T01:28:27.013Z,1004.56
2018-09-18T01:29:07.489Z,1004.58
2018-09-18T01:29:47.895Z,1004.55
2018-09-18T01:30:28.325Z,1004.52
2018-09-18T01:31:08.675Z,1004.53
2018-09-18T01:31:49.088Z,1004.54
2018-09-18T01:32:29.528Z,1004.53
2018-09-18T01:33:09.947Z,1004.56
2018-09-18T01:33:50.333Z,1004.53
2018-09-18T01:34:30.737Z,1004.55
2018-09-18T01:35:11.127Z,1004.56
2018-09-18T01:35:51.552Z,1004.58
2018-09-18T01:36:31.908Z,1004.57
2018-09-18T01:37:12.331Z,1004.55
2018-09-18T01:37:52.937Z,1004.55
2018-09-18T01:38:33.288Z,1004.56
2018-09-18T01:39:13.626Z,1004.53
2018-09-18T01:39:54.064Z,1004.53
2018-09-18T01:40:34.429Z,1004.52
2018-09-18T01:41:14.948Z,1004.51
2018-09-18T01:41:55.295Z,1004.55
2018-09-18T01:42:35.812Z,1004.51
2018-09-18T01:43:16.104Z,1004.52
2018-09-18T01:43:56.602Z,1004.56
2018-09-18T01:44:37.005Z,1004.51
2018-09-18T01:45:18.199Z,1004.5
2018-09-18T01:45:58.627Z,1004.53
2018-09-18T01:49:04.337Z,1004.47
2018-09-18T01:49:45.928Z,1004.5
2018-09-18T01:50:26.361Z,1004.52
2018-09-18T01:51:06.976Z,1004.51
2018-09-18T01:51:47.700Z,1004.5
2018-09-18T01:52:28.154Z,1004.47
2018-09-18T01:53:09.180Z,1004.49
2018-09-18T01:53:49.704Z,1004.47
2018-09-18T01:54:30.385Z,1004.46
2018-09-18T01:55:10.437Z,1004.46
2018-09-18T01:55:51.161Z,1004.46
2018-09-18T01:56:31.570Z,1004.43
2018-09-18T01:57:12.089Z,1004.41
2018-09-18T01:57:52.566Z,1004.41
2018-09-18T01:58:33.209Z,1004.43
2018-09-18T01:59:13.692Z,1004.41
2018-09-18T01:59:54.360Z,1004.41
2018-09-18T02:00:34.671Z,1004.45
2018-09-18T02:01:15.156Z,1004.42
2018-09-18T02:01:55.976Z,1004.4
2018-09-18T02:02:36.445Z,1004.42
2018-09-18T02:03:16.706Z,1004.36
2018-09-18T02:03:57.103Z,1004.37
2018-09-18T02:04:38.340Z,1004.38
2018-09-18T02:05:18.623Z,1004.37
2018-09-18T02:05:59.273Z,1004.38
2018-09-18T02:06:41.016Z,1004.36
2018-09-18T02:07:21.360Z,1004.35
2018-09-18T02:08:01.874Z,1004.38
2018-09-18T02:08:43.072Z,1004.35
2018-09-18T02:09:22.688Z,1004.38
2018-09-18T02:10:03.199Z,1004.38
2018-09-18T02:10:43.516Z,1004.34
2018-09-18T02:11:23.907Z,1004.36
2018-09-18T02:12:04.371Z,1004.32
2018-09-18T02:15:52.580Z,1004.38
2018-09-18T02:16:33.142Z,1004.37
2018-09-18T02:17:13.480Z,1004.34
2018-09-18T02:17:54.027Z,1004.35
2018-09-18T02:18:34.733Z,1004.33
2018-09-18T02:19:15.259Z,1004.36
2018-09-18T02:19:56.163Z,1004.29
2018-09-18T02:20:36.661Z,1004.28
2018-09-18T02:21:17.245Z,1004.29
2018-09-18T02:21:57.887Z,1004.29
2018-09-18T02:22:38.476Z,1004.31
2018-09-18T02:23:18.971Z,1004.29
2018-09-18T02:23:59.651Z,1004.29
2018-09-18T02:24:39.956Z,1004.29
2018-09-18T02:25:20.378Z,1004.27
2018-09-18T02:26:00.742Z,1004.26
2018-09-18T02:26:41.529Z,1004.25
2018-09-18T02:27:22.298Z,1004.24
2018-09-18T02:28:02.777Z,1004.22
2018-09-18T02:28:43.465Z,1004.23
2018-09-18T02:29:23.989Z,1004.2
2018-09-18T02:30:04.879Z,1004.24
2018-09-18T02:30:45.324Z,1004.19
2018-09-18T02:31:25.775Z,1004.19
2018-09-18T02:32:06.460Z,1004.19
2018-09-18T02:32:47.275Z,1004.19
2018-09-18T02:33:27.603Z,1004.19
2018-09-18T02:34:08.267Z,1004.18
2018-09-18T02:34:48.841Z,1004.2
2018-09-18T02:35:29.105Z,1004.16
2018-09-18T02:36:09.821Z,1004.16
2018-09-18T02:36:50.226Z,1004.11
2018-09-18T02:37:30.710Z,1004.15
2018-09-18T02:38:11.140Z,1004.18
2018-09-18T02:38:51.446Z,1004.16
2018-09-18T02:39:32.215Z,1004.16
2018-09-18T02:40:12.755Z,1004.19
2018-09-18T02:40:53.292Z,1004.16
2018-09-18T02:41:33.710Z,1004.17
2018-09-18T02:42:14.068Z,1004.11
2018-09-18T02:42:54.494Z,1004.14
2018-09-18T02:43:34.874Z,1004.16
2018-09-18T02:44:15.887Z,1004.15
2018-09-18T02:44:57.666Z,1004.18
2018-09-18T02:45:40.957Z,1004.14
2018-09-18T02:46:22.243Z,1004.13
2018-09-18T02:47:03.693Z,1004.18
2018-09-18T02:47:44.240Z,1004.11
2018-09-18T02:48:25.188Z,1004.11
2018-09-18T02:49:05.603Z,1004.12
2018-09-18T02:49:46.592Z,1004.14
2018-09-18T02:50:27.080Z,1004.08
2018-09-18T02:51:07.689Z,1004.12
2018-09-18T02:51:48.597Z,1004.12
2018-09-18T02:52:29.204Z,1004.1
2018-09-18T02:53:10.187Z,1004.08
2018-09-18T02:53:50.740Z,1004.08
2018-09-18T02:54:31.818Z,1004.1
2018-09-18T02:55:12.383Z,1004.09
2018-09-18T02:55:52.896Z,1004.12
2018-09-18T02:56:33.234Z,1004.1
2018-09-18T02:57:15.517Z,1004.08
2018-09-18T02:57:54.631Z,1004.06
2018-09-18T02:58:35.304Z,1004.09
2018-09-18T02:59:16.633Z,1004.07
2018-09-18T03:00:00.749Z,1004.07
2018-09-18T03:00:41.152Z,1004.01
2018-09-18T03:01:22.403Z,1004.05
2018-09-18T03:02:06.037Z,1004.05
2018-09-18T03:02:47.216Z,1004.03
2018-09-18T03:03:28.266Z,1004.05
2018-09-18T03:04:09.337Z,1004.05
2018-09-18T03:11:23.258Z,1004.03
2018-09-18T03:12:06.342Z,1004.01
2018-09-18T03:12:46.784Z,1003.98
2018-09-18T03:13:27.236Z,1004
2018-09-18T03:14:09.391Z,1003.96
2018-09-18T03:14:51.051Z,1004
2018-09-18T03:15:32.219Z,1003.99
2018-09-18T03:16:11.854Z,1003.96
2018-09-18T03:16:52.386Z,1003.98
2018-09-18T03:17:33.458Z,1003.98
2018-09-18T03:18:14.061Z,1003.98
2018-09-18T03:18:55.948Z,1004
2018-09-18T03:25:34.815Z,1003.97
2018-09-18T03:26:14.718Z,1003.96
2018-09-18T03:26:55.389Z,1003.95
2018-09-18T03:27:36.597Z,1003.93
2018-09-18T03:28:20.173Z,1003.91
2018-09-18T03:29:00.615Z,1003.91
2018-09-18T03:29:41.252Z,1003.92
2018-09-18T03:30:21.701Z,1003.88
2018-09-18T03:31:03.034Z,1003.9
2018-09-18T03:31:43.622Z,1003.89
2018-09-18T03:32:24.459Z,1003.88
2018-09-18T03:33:05.520Z,1003.87
2018-09-18T03:33:46.107Z,1003.9
2018-09-18T03:34:29.950Z,1003.87
2018-09-18T03:35:10.021Z,1003.88
2018-09-18T03:35:50.392Z,1003.91
2018-09-18T03:36:30.944Z,1003.92
2018-09-18T03:37:12.013Z,1003.89
2018-09-18T03:37:52.461Z,1003.89
2018-09-18T03:38:33.542Z,1003.9
2018-09-18T03:39:13.790Z,1003.89
2018-09-18T03:39:54.284Z,1003.87
2018-09-18T03:40:35.162Z,1003.86
2018-09-18T03:41:16.975Z,1003.87
2018-09-18T03:41:57.824Z,1003.85
2018-09-18T03:42:38.604Z,1003.83
2018-09-18T03:43:20.735Z,1003.87
2018-09-18T03:44:01.691Z,1003.85
2018-09-18T03:52:36.581Z,1003.77
2018-09-18T03:53:17.732Z,1003.74
2018-09-18T03:53:58.299Z,1003.7
2018-09-18T03:54:39.111Z,1003.72
2018-09-18T03:55:20.489Z,1003.73
2018-09-18T03:56:01.031Z,1003.73
2018-09-18T03:56:41.580Z,1003.7
2018-09-18T03:57:22.259Z,1003.67
2018-09-18T03:58:03.090Z,1003.72
2018-09-18T03:58:44.116Z,1003.7
2018-09-18T03:59:24.761Z,1003.72
2018-09-18T04:00:07.607Z,1003.66
2018-09-18T04:00:48.239Z,1003.69
2018-09-18T04:01:29.233Z,1003.68
2018-09-18T04:02:09.735Z,1003.66
2018-09-18T04:02:50.259Z,1003.65
2018-09-18T04:03:30.667Z,1003.72
2018-09-18T04:04:11.598Z,1003.64
2018-09-18T04:04:52.155Z,1003.64
2018-09-18T04:05:32.565Z,1003.61
2018-09-18T04:06:13.204Z,1003.6
2018-09-18T04:06:53.937Z,1003.66
2018-09-18T04:07:34.618Z,1003.65
2018-09-18T04:08:15.518Z,1003.61
2018-09-18T04:08:56.217Z,1003.61
2018-09-18T04:09:37.229Z,1003.59
2018-09-18T04:10:18.405Z,1003.58
2018-09-18T04:10:58.988Z,1003.59
2018-09-18T04:11:39.953Z,1003.57
2018-09-18T04:12:21.030Z,1003.58
2018-09-18T04:13:01.716Z,1003.59
2018-09-18T04:13:42.743Z,1003.57
2018-09-18T04:14:23.442Z,1003.58
2018-09-18T04:15:05.387Z,1003.61
2018-09-18T04:15:45.786Z,1003.57
2018-09-18T04:16:27.879Z,1003.56
2018-09-18T04:17:08.903Z,1003.55
2018-09-18T04:17:49.601Z,1003.53
2018-09-18T04:18:29.930Z,1003.54
2018-09-18T04:19:10.499Z,1003.55
2018-09-18T04:19:51.069Z,1003.57
2018-09-18T04:20:31.588Z,1003.55
2018-09-18T04:21:12.244Z,1003.57
2018-09-18T04:21:52.663Z,1003.57
2018-09-18T04:22:33.460Z,1003.57
2018-09-18T04:23:13.556Z,1003.54
2018-09-18T04:23:54.534Z,1003.51
2018-09-18T04:24:35.989Z,1003.58
2018-09-18T04:25:16.165Z,1003.55
2018-09-18T04:25:57.551Z,1003.55
2018-09-18T04:26:37.323Z,1003.54
2018-09-18T04:27:18.381Z,1003.52
2018-09-18T05:07:07.477Z,1003.41
2018-09-18T05:08:01.379Z,1003.46
2018-09-18T05:08:54.528Z,1003.43
2018-09-18T05:09:46.912Z,1003.43
2018-09-18T05:10:39.893Z,1003.43
2018-09-18T05:11:32.046Z,1003.49
2018-09-18T05:14:05.842Z,1003.45
2018-09-18T05:18:33.254Z,1003.44
2018-09-18T05:19:27.748Z,1003.4
2018-09-18T05:20:21.071Z,1003.44
2018-09-18T05:21:14.621Z,1003.47
2018-09-18T05:22:11.563Z,1003.42
2018-09-18T05:23:06.499Z,1003.44
2018-09-18T05:24:00.575Z,1003.45
2018-09-18T05:24:52.665Z,1003.44
2018-09-18T05:25:45.042Z,1003.43
2018-09-18T05:26:37.798Z,1003.44
2018-09-18T05:27:30.875Z,1003.44
2018-09-18T05:28:23.638Z,1003.47
2018-09-18T05:29:15.954Z,1003.44
2018-09-18T05:30:08.038Z,1003.48
2018-09-18T05:31:11.781Z,1003.49
2018-09-18T05:32:04.493Z,1003.5
2018-09-18T05:32:58.924Z,1003.51
2018-09-18T05:33:57.637Z,1003.54
2018-09-18T05:34:52.075Z,1003.51
2018-09-18T05:35:36.052Z,1003.53
2018-09-18T05:36:16.525Z,1003.53
2018-09-18T05:36:57.125Z,1003.55
2018-09-18T05:37:37.580Z,1003.58
2018-09-18T05:38:18.029Z,1003.54
2018-09-18T05:38:58.392Z,1003.52
2018-09-18T05:39:40.400Z,1003.51
2018-09-18T05:40:20.817Z,1003.55
2018-09-18T05:41:01.273Z,1003.56
2018-09-18T05:41:41.641Z,1003.53
2018-09-18T05:42:22.201Z,1003.57
2018-09-18T05:43:04.344Z,1003.53
2018-09-18T05:43:44.711Z,1003.55
2018-09-18T05:44:30.547Z,1003.55
2018-09-18T05:45:10.976Z,1003.61
2018-09-18T05:45:51.418Z,1003.56
2018-09-18T05:46:31.946Z,1003.56
2018-09-18T05:47:12.270Z,1003.6
2018-09-18T05:47:52.626Z,1003.52
2018-09-18T05:48:34.984Z,1003.6
2018-09-18T05:49:24.051Z,1003.55
2018-09-18T05:50:05.629Z,1003.6
2018-09-18T05:50:57.455Z,1003.62
2018-09-18T05:51:38.063Z,1003.58
2018-09-18T05:52:18.382Z,1003.62
2018-09-18T05:52:58.923Z,1003.53
2018-09-18T05:53:39.427Z,1003.61
2018-09-18T05:54:19.816Z,1003.62
2018-09-18T05:55:00.290Z,1003.64
2018-09-18T05:55:40.801Z,1003.62
2018-09-18T05:56:21.221Z,1003.61
2018-09-18T05:57:02.280Z,1003.62
2018-09-18T05:57:42.097Z,1003.66
2018-09-18T05:58:22.550Z,1003.6
2018-09-18T05:59:03.052Z,1003.64
2018-09-18T05:59:43.401Z,1003.64
2018-09-18T06:00:25.036Z,1003.66
2018-09-18T06:01:05.501Z,1003.67
2018-09-18T06:01:45.894Z,1003.62
2018-09-18T06:02:26.264Z,1003.65
2018-09-18T06:04:54.391Z,1003.63
2018-09-18T06:05:52.446Z,1003.67
2018-09-18T06:06:46.014Z,1003.69
2018-09-18T06:07:39.628Z,1003.71
2018-09-18T06:08:40.173Z,1003.69
2018-09-18T06:09:32.647Z,1003.69
2018-09-18T06:10:25.119Z,1003.68
2018-09-18T06:11:17.558Z,1003.73
2018-09-18T06:12:14.584Z,1003.66
2018-09-18T06:13:10.666Z,1003.7
2018-09-18T06:14:04.216Z,1003.67
2018-09-18T06:14:58.544Z,1003.69
2018-09-18T06:15:58.170Z,1003.69
2018-09-18T06:16:59.544Z,1003.71
2018-09-18T06:18:12.970Z,1003.72
2018-09-18T06:20:53.915Z,1003.59
2018-09-18T06:21:52.381Z,1003.59
2018-09-18T06:22:54.998Z,1003.67
2018-09-18T06:23:49.668Z,1003.6
2018-09-18T06:24:45.438Z,1003.66
2018-09-18T06:25:51.715Z,1003.59
2018-09-18T06:29:36.958Z,1003.7
2018-09-18T06:30:29.737Z,1003.63
2018-09-18T06:33:03.559Z,1003.61
2018-09-18T06:34:08.775Z,1003.64
2018-09-18T06:35:13.696Z,1003.62
2018-09-18T06:44:25.554Z,1003.61
2018-09-18T06:45:23.616Z,1003.6
2018-09-18T06:46:21.852Z,1003.62
2018-09-18T06:49:42.888Z,1003.62
2018-09-18T06:53:24.456Z,1003.63
2018-09-18T06:54:25.712Z,1003.64
2018-09-18T06:55:27.092Z,1003.69
2018-09-18T06:56:28.766Z,1003.67
2018-09-18T06:57:26.732Z,1003.62
2018-09-18T06:58:27.440Z,1003.64
2018-09-18T06:59:29.201Z,1003.6
2018-09-18T07:00:34.009Z,1003.59
2018-09-18T07:01:34.378Z,1003.56
2018-09-18T07:02:36.451Z,1003.52
2018-09-18T07:03:40.833Z,1003.53
2018-09-18T07:04:43.529Z,1003.55
2018-09-18T07:05:41.255Z,1003.57
2018-09-18T07:06:59.836Z,1003.57
2018-09-18T07:08:16.526Z,1003.59
2018-09-18T07:09:09.638Z,1003.56
2018-09-18T07:10:04.256Z,1003.59
2018-09-18T07:11:13.657Z,1003.53
2018-09-18T07:13:05.986Z,1003.68
2018-09-18T07:13:59.378Z,1003.6
2018-09-18T07:14:51.830Z,1003.62
2018-09-18T07:15:44.780Z,1003.67
2018-09-18T07:16:37.842Z,1003.6
2018-09-18T07:17:40.684Z,1003.58
2018-09-18T07:18:35.760Z,1003.61
2018-09-18T07:19:30.256Z,1003.64
2018-09-18T07:20:28.131Z,1003.53
2018-09-18T07:21:33.562Z,1003.55
2018-09-18T07:22:32.209Z,1003.56
2018-09-18T07:23:25.211Z,1003.59
2018-09-18T07:24:21.241Z,1003.55
2018-09-18T07:25:15.356Z,1003.59
2018-09-18T07:26:09.517Z,1003.64
2018-09-18T07:30:18.540Z,1003.57
2018-09-18T07:31:14.555Z,1003.53
2018-09-18T07:32:09.143Z,1003.58
2018-09-18T07:33:03.513Z,1003.56
2018-09-18T07:33:57.802Z,1003.58
2018-09-18T07:34:51.125Z,1003.55
2018-09-18T07:35:44.912Z,1003.57
2018-09-18T07:36:37.770Z,1003.57
2018-09-18T07:39:03.430Z,1003.6
2018-09-18T07:39:58.606Z,1003.6
2018-09-18T07:40:58.637Z,1003.59
2018-09-18T07:41:53.737Z,1003.61
2018-09-18T07:42:48.602Z,1003.63
2018-09-18T07:43:42.332Z,1003.58
2018-09-18T07:44:34.831Z,1003.61
2018-09-18T07:45:26.817Z,1003.62
2018-09-18T07:46:20.544Z,1003.65
2018-09-18T07:47:13.627Z,1003.61
2018-09-18T07:48:07.506Z,1003.62
2018-09-18T07:49:07.579Z,1003.63
2018-09-18T07:56:38.441Z,1003.58
2018-09-18T07:57:38.676Z,1003.61
2018-09-18T07:58:20.076Z,1003.57
2018-09-18T07:59:01.129Z,1003.6
2018-09-18T07:59:42.008Z,1003.6
2018-09-18T08:02:29.790Z,1003.6
2018-09-18T08:03:26.845Z,1003.57
2018-09-18T08:04:22.435Z,1003.6
2018-09-18T08:05:23.673Z,1003.53
2018-09-18T08:06:15.426Z,1003.56
2018-09-18T08:08:38.743Z,1003.58
2018-09-18T08:09:42.959Z,1003.45
2018-09-18T08:10:40.862Z,1003.58
2018-09-18T08:11:51.976Z,1003.54
2018-09-18T08:12:45.038Z,1003.68
2018-09-18T08:13:44.163Z,1003.54
2018-09-18T08:14:40.226Z,1003.58
2018-09-18T08:15:36.256Z,1003.61
2018-09-18T08:16:31.805Z,1003.55
2018-09-18T08:17:32.154Z,1003.63
2018-09-18T08:20:37.054Z,1003.57
2018-09-18T08:21:35.452Z,1003.61
2018-09-18T08:22:32.635Z,1003.55
2018-09-18T08:25:00.376Z,1003.6
2018-09-18T08:25:41.052Z,1003.65
2018-09-18T08:26:20.747Z,1003.64
2018-09-18T08:27:01.653Z,1003.61
2018-09-18T08:27:42.396Z,1003.65
2018-09-18T08:28:25.036Z,1003.65
2018-09-18T08:29:05.692Z,1003.59
2018-09-18T08:29:47.084Z,1003.65
2018-09-18T08:30:28.234Z,1003.6
2018-09-18T08:31:08.910Z,1003.66
2018-09-18T08:31:49.559Z,1003.55
2018-09-18T08:32:30.445Z,1003.58
2018-09-18T08:33:12.894Z,1003.61
2018-09-18T08:33:55.235Z,1003.6
2018-09-18T08:34:36.404Z,1003.66
2018-09-18T08:35:17.075Z,1003.62
2018-09-18T08:35:59.473Z,1003.56
2018-09-18T08:36:42.237Z,1003.63
2018-09-18T08:37:22.832Z,1003.65
2018-09-18T08:38:04.107Z,1003.58
2018-09-18T08:38:44.894Z,1003.59
2018-09-18T08:39:25.834Z,1003.62
2018-09-18T08:40:07.728Z,1003.6
2018-09-18T08:40:51.579Z,1003.65
2018-09-18T08:41:33.169Z,1003.61
2018-09-18T08:42:29.180Z,1003.6
2018-09-18T08:43:10.552Z,1003.61
2018-09-18T08:43:51.841Z,1003.7
2018-09-18T08:44:32.653Z,1003.63
2018-09-18T08:45:13.987Z,1003.58
2018-09-18T08:45:54.913Z,1003.64
2018-09-18T08:46:35.666Z,1003.59
2018-09-18T08:47:16.908Z,1003.53
2018-09-18T08:47:58.037Z,1003.75
2018-09-18T08:48:42.100Z,1003.65
2018-09-18T08:49:23.366Z,1003.58
2018-09-18T08:50:04.768Z,1003.56
2018-09-18T08:50:46.993Z,1003.57
2018-09-18T08:51:27.696Z,1003.67
2018-09-18T08:52:09.471Z,1003.66
2018-09-18T08:52:50.337Z,1003.6
2018-09-18T08:53:32.453Z,1003.63
2018-09-18T08:54:13.740Z,1003.57
2018-09-18T08:54:55.664Z,1003.74
2018-09-18T08:55:37.458Z,1003.59
2018-09-18T08:56:17.744Z,1003.64
2018-09-18T08:57:01.491Z,1003.57
2018-09-18T08:57:41.335Z,1003.58
2018-09-18T08:58:22.936Z,1003.56
2018-09-18T08:59:03.388Z,1003.54
2018-09-18T08:59:44.614Z,1003.56
2018-09-18T09:00:26.491Z,1003.58
2018-09-18T09:01:07.413Z,1003.57
2018-09-18T09:01:48.439Z,1003.58
2018-09-18T09:02:28.969Z,1003.55
2018-09-18T09:03:09.764Z,1003.6
2018-09-18T09:03:51.419Z,1003.6
2018-09-18T09:04:33.556Z,1003.61
2018-09-18T09:05:14.133Z,1003.59
2018-09-18T09:05:54.543Z,1003.59
2018-09-18T09:06:35.240Z,1003.64
2018-09-18T09:07:15.691Z,1003.62
2018-09-18T09:07:57.639Z,1003.6
2018-09-18T09:08:39.304Z,1003.62
2018-09-18T09:09:20.961Z,1003.65
2018-09-18T09:10:02.569Z,1003.63
2018-09-18T09:10:44.250Z,1003.6
2018-09-18T09:11:24.156Z,1003.59
2018-09-18T09:12:05.139Z,1003.59
2018-09-18T09:12:46.629Z,1003.59
2018-09-18T09:13:27.402Z,1003.62
2018-09-18T09:14:09.991Z,1003.62
2018-09-18T09:14:50.084Z,1003.6
2018-09-18T09:15:30.594Z,1003.63
2018-09-18T09:16:11.559Z,1003.67
2018-09-18T09:16:53.829Z,1003.63
2018-09-18T09:17:35.254Z,1003.6
2018-09-18T09:18:16.665Z,1003.62
2018-09-18T09:18:56.953Z,1003.56
2018-09-18T09:19:38.427Z,1003.65
2018-09-18T09:20:18.130Z,1003.61
2018-09-18T09:21:01.684Z,1003.62
2018-09-18T09:21:43.507Z,1003.62
2018-09-18T09:22:24.230Z,1003.62
2018-09-18T09:23:04.636Z,1003.65
2018-09-18T09:23:44.957Z,1003.61
2018-09-18T09:24:25.427Z,1003.59
2018-09-18T09:25:05.913Z,1003.58
2018-09-18T09:25:48.113Z,1003.54
2018-09-18T09:26:30.199Z,1003.59
2018-09-18T09:27:10.552Z,1003.52
2018-09-18T09:27:51.049Z,1003.55
2018-09-18T09:28:31.536Z,1003.56
2018-09-18T09:29:12.004Z,1003.53
2018-09-18T09:29:52.501Z,1003.54
2018-09-18T09:30:34.034Z,1003.55
2018-09-18T09:31:14.479Z,1003.57
2018-09-18T09:31:54.999Z,1003.6
2018-09-18T09:32:35.545Z,1003.53
2018-09-18T09:33:16.104Z,1003.59
2018-09-18T09:33:56.559Z,1003.58
2018-09-18T09:34:37.461Z,1003.58
2018-09-18T09:35:18.045Z,1003.61
2018-09-18T09:35:58.537Z,1003.56
2018-09-18T09:36:39.336Z,1003.57
2018-09-18T09:37:20.127Z,1003.52
2018-09-18T09:38:00.473Z,1003.51
2018-09-18T09:38:41.259Z,1003.51
2018-09-18T09:39:21.731Z,1003.59
2018-09-18T09:40:03.578Z,1003.55
2018-09-18T09:40:44.029Z,1003.57
2018-09-18T09:41:24.077Z,1003.51
2018-09-18T09:42:04.585Z,1003.53
2018-09-18T09:42:45.931Z,1003.54
2018-09-18T09:43:26.569Z,1003.52
2018-09-18T09:44:07.831Z,1003.56
2018-09-18T09:44:49.410Z,1003.63
2018-09-18T09:45:29.124Z,1003.61
2018-09-18T09:46:10.478Z,1003.56
2018-09-18T09:46:50.866Z,1003.56
2018-09-18T09:47:31.307Z,1003.54
2018-09-18T09:48:11.836Z,1003.58
2018-09-18T09:48:52.283Z,1003.57
2018-09-18T09:49:32.799Z,1003.57
2018-09-18T09:50:13.199Z,1003.59
2018-09-18T09:50:53.762Z,1003.54
2018-09-18T09:51:34.487Z,1003.59
2018-09-18T09:52:19.448Z,1003.39
2018-09-18T09:52:59.966Z,1003.57
2018-09-18T09:53:40.774Z,1003.54
2018-09-18T09:54:21.201Z,1003.49
2018-09-18T09:55:01.603Z,1003.64
2018-09-18T09:55:42.912Z,1003.59
2018-09-18T09:56:23.321Z,1003.58
2018-09-18T09:57:05.354Z,1003.52
2018-09-18T09:57:45.981Z,1003.62
2018-09-18T09:58:26.591Z,1003.67
2018-09-18T09:59:09.650Z,1003.6
2018-09-18T09:59:50.065Z,1003.6
2018-09-18T10:00:31.096Z,1003.61
2018-09-18T10:04:41.498Z,1003.56
2018-09-18T10:05:28.900Z,1003.55
2018-09-18T10:06:14.267Z,1003.63
2018-09-18T10:06:57.219Z,1003.61
2018-09-18T10:07:47.781Z,1003.59
2018-09-18T10:08:43.926Z,1003.77
2018-09-18T10:09:36.372Z,1003.59
2018-09-18T10:10:17.410Z,1003.57
2018-09-18T10:10:59.434Z,1003.55
2018-09-18T10:11:46.985Z,1003.6
2018-09-18T10:12:36.904Z,1003.63
2018-09-18T10:13:23.037Z,1003.57
2018-09-18T10:14:06.431Z,1003.68
2018-09-18T10:14:53.699Z,1003.7
2018-09-18T10:15:34.446Z,1003.62
2018-09-18T10:16:15.105Z,1003.61
2018-09-18T10:16:55.555Z,1003.53
2018-09-18T10:17:36.105Z,1003.58
2018-09-18T10:18:17.452Z,1003.59
2018-09-18T10:18:57.722Z,1003.54
2018-09-18T10:19:38.292Z,1003.56
2018-09-18T10:20:18.723Z,1003.51
2018-09-18T10:20:59.251Z,1003.55
2018-09-18T10:21:39.740Z,1003.58
2018-09-18T10:22:20.842Z,1003.47
2018-09-18T10:23:00.938Z,1003.5
2018-09-18T10:23:41.599Z,1003.53
2018-09-18T10:24:22.025Z,1003.57
2018-09-18T10:25:04.431Z,1003.62
2018-09-18T10:25:44.757Z,1003.58
2018-09-18T10:26:25.730Z,1003.52
2018-09-18T10:27:07.323Z,1003.63
2018-09-18T11:07:21.584Z,1003.29
2018-09-18T11:08:23.451Z,1003.26
2018-09-18T11:09:31.575Z,1003.3
2018-09-18T11:10:28.888Z,1003.27
2018-09-18T11:11:29.145Z,1003.26
2018-09-18T11:16:52.681Z,1003.11
2018-09-18T11:17:58.956Z,1003.26
2018-09-18T11:19:04.085Z,1003.3
2018-09-18T11:24:01.126Z,1003.25
2018-09-18T11:24:40.406Z,1003.18
2018-09-18T11:25:21.111Z,1003.15
2018-09-18T11:26:02.292Z,1003.17
2018-09-18T11:26:42.686Z,1003.25
2018-09-18T11:27:24.338Z,1003.2
2018-09-18T11:28:04.429Z,1003.18
2018-09-18T11:28:46.327Z,1003.14
2018-09-18T11:29:26.875Z,1003.18
2018-09-18T11:30:06.810Z,1003.24
2018-09-18T11:30:47.470Z,1003.19
2018-09-18T11:31:28.940Z,1003.15
2018-09-18T11:32:08.596Z,1003.2
2018-09-18T11:32:50.470Z,1003.14
2018-09-18T11:33:30.863Z,1003.21
2018-09-18T11:34:11.553Z,1003.15
2018-09-18T11:34:51.847Z,1003.1
2018-09-18T11:35:32.945Z,1003.08
2018-09-18T11:36:13.640Z,1003.06
2018-09-18T11:36:54.491Z,1003.13